Ana Sayfa
METAR-TAF:

METAR-TAF

Havaalanları :

Vicksburg Tallulah Regional Airport

Tallulah / Vicksburg, Louisiana, Amerika Birleşik Devletleri

Enlem: 32-20-53N, Boylam: 091-01-48W, yükseklik: 26 m

Güncel hava durumu gözlemi

Rapor saat 09:53 UTC de 46 dakika önce yapıldı.
Sakin rüzgar
Sıcaklık 22°C
Nem 94%
Basınç 1019 hPa
Görüş mesafesi: 12.9 km
Açık gökyüzü

METAR: KTVR 220953Z AUTO 00000KT 8SM CLR 22/21 A3009 RMK AO2 SLP194 T02220211

Saat: 05:39 (10:39 UTC)


TAF: eksik

4.000'den fazla havaalanı için hava durumu gözlemleri ve tahminleri (METAR ve TAF raporları).

Kullanılabilir istasyonlar harita üzerinde sarı ve kırmızı noktalarla gösterilir.

İstasyonun adını görmek için fareyi noktanın üzerinde gezdirin.

Sonrasında hava gözlem ve tahminlerini görmek için tıklayın.

Haritayı değiştirmek için: yaklaştırmak için siyah artı işaretli yeşil düğmeye ve uzaklaştırmak için de eksi işaretli düğmeye hızla tıklayın; bitişik haritalar için yeşil okları kullanın.


METAR-TAF: